createdAt,value
2019-05-13T06:25:33.662Z,1034.16
2019-05-13T06:26:31.408Z,1034.18
2019-05-13T06:27:31.770Z,1034.26
2019-05-13T06:28:32.272Z,1034.22
2019-05-13T06:29:31.910Z,1034.21
2019-05-13T06:30:32.545Z,1034.24
2019-05-13T06:31:32.249Z,1034.29
2019-05-13T06:32:31.527Z,1034.28
2019-05-13T06:33:31.707Z,1034.36
2019-05-13T06:34:32.790Z,1034.36
2019-05-13T06:35:32.343Z,1034.48
2019-05-13T06:36:31.803Z,1034.57
2019-05-13T06:37:32.167Z,1034.52
2019-05-13T06:38:31.739Z,1034.46
2019-05-13T06:39:31.812Z,1034.46
2019-05-13T06:40:31.840Z,1034.24
2019-05-13T06:41:32.335Z,1034.54
2019-05-13T06:42:32.451Z,1034.62
2019-05-13T06:43:31.585Z,1034.65
2019-05-13T06:44:31.748Z,1034.55
2019-05-13T06:45:31.689Z,1034.59
2019-05-13T06:46:32.329Z,1034.57
2019-05-13T06:47:32.200Z,1034.58
2019-05-13T06:48:32.326Z,1034.55
2019-05-13T06:49:32.383Z,1034.57
2019-05-13T06:50:32.339Z,1034.60
2019-05-13T06:51:31.511Z,1034.73
2019-05-13T06:52:32.022Z,1034.71
2019-05-13T06:53:32.206Z,1034.72
2019-05-13T06:54:32.906Z,1034.68
2019-05-13T06:55:31.627Z,1034.58
2019-05-13T06:56:32.250Z,1034.61
2019-05-13T06:57:32.246Z,1034.51
2019-05-13T06:58:32.560Z,1034.64
2019-05-13T06:59:31.733Z,1034.52
2019-05-13T07:00:34.681Z,1034.52
2019-05-13T07:01:32.315Z,1034.57
2019-05-13T07:02:32.071Z,1034.66
2019-05-13T07:03:32.256Z,1034.48
2019-05-13T07:04:32.636Z,1034.52
2019-05-13T07:05:31.887Z,1034.63
2019-05-13T07:06:32.301Z,1034.69
2019-05-13T07:07:31.916Z,1034.74
2019-05-13T07:08:31.629Z,1034.68
2019-05-13T07:09:32.545Z,1034.72
2019-05-13T07:10:32.156Z,1034.59
2019-05-13T07:11:31.692Z,1034.58
2019-05-13T07:12:31.643Z,1034.64
2019-05-13T07:13:32.368Z,1034.52
2019-05-13T07:14:32.529Z,1034.55
2019-05-13T07:15:31.678Z,1034.71
2019-05-13T07:16:31.828Z,1034.68
2019-05-13T07:17:32.321Z,1034.69
2019-05-13T07:18:32.332Z,1034.46
2019-05-13T07:19:32.448Z,1034.51
2019-05-13T07:20:32.343Z,1034.57
2019-05-13T07:21:32.395Z,1034.50
2019-05-13T07:22:32.297Z,1034.55
2019-05-13T07:23:32.025Z,1034.57
2019-05-13T07:24:32.470Z,1034.62
2019-05-13T07:25:32.625Z,1034.72
2019-05-13T07:26:31.816Z,1034.78
2019-05-13T07:27:31.997Z,1034.88
2019-05-13T07:28:32.395Z,1034.89
2019-05-13T07:29:32.723Z,1035.02
2019-05-13T07:30:31.876Z,1035.07
2019-05-13T07:31:32.467Z,1034.99
2019-05-13T07:32:31.896Z,1034.95
2019-05-13T07:33:32.204Z,1034.97
2019-05-13T07:34:33.623Z,1035.06
2019-05-13T07:35:37.591Z,1034.94
2019-05-13T07:36:31.948Z,1035.05
2019-05-13T07:37:31.988Z,1035.05
2019-05-13T07:38:32.446Z,1034.99
2019-05-13T07:39:32.887Z,1035.11
2019-05-13T07:40:32.235Z,1035.13
2019-05-13T07:41:39.034Z,1034.98
2019-05-13T07:42:32.076Z,1034.91
2019-05-13T07:43:32.282Z,1034.93
2019-05-13T07:44:32.586Z,1034.96
2019-05-13T07:45:32.077Z,1035.02
2019-05-13T07:46:32.380Z,1035.09
2019-05-13T07:47:32.103Z,1035.21
2019-05-13T07:48:32.212Z,1035.02
2019-05-13T07:49:32.191Z,1035.21
2019-05-13T07:50:32.261Z,1035.28
2019-05-13T07:51:32.291Z,1034.88
2019-05-13T07:52:32.186Z,1035.28
2019-05-13T07:53:32.394Z,1035.02
2019-05-13T07:54:33.144Z,1035.11
2019-05-13T07:55:32.221Z,1035.08
2019-05-13T07:56:32.561Z,1035.31
2019-05-13T07:57:32.253Z,1035.18
2019-05-13T07:58:37.186Z,1035.57
2019-05-13T07:59:32.276Z,1035.61
2019-05-13T08:00:32.721Z,1035.42
2019-05-13T08:01:32.889Z,1035.96
2019-05-13T08:02:32.369Z,1036.17
2019-05-13T08:03:32.339Z,1036.50
2019-05-13T08:04:33.619Z,1036.76
2019-05-13T08:05:32.370Z,1037.03
2019-05-13T08:06:32.579Z,1037.36
2019-05-13T08:07:32.398Z,1038.24
2019-05-13T08:08:32.558Z,1038.87
2019-05-13T08:09:32.430Z,1038.84
2019-05-13T08:10:32.448Z,1039.96
2019-05-13T08:11:35.357Z,1040.48
2019-05-13T08:12:32.480Z,1040.22
2019-05-13T08:13:32.499Z,1041.34
2019-05-13T08:14:32.555Z,1041.11
2019-05-13T08:15:32.540Z,1043.25
2019-05-13T08:16:32.559Z,1043.96
2019-05-13T08:17:32.868Z,1044.52
2019-05-13T08:18:32.577Z,1046.04
2019-05-13T08:19:32.921Z,1047.64
2019-05-13T08:21:32.620Z,1048.09
2019-05-13T08:22:32.635Z,1048.25
2019-05-13T08:23:32.656Z,1051.62
2019-05-13T08:24:32.755Z,1050.55
2019-05-13T08:25:32.686Z,1053.93
2019-05-13T08:26:32.701Z,1054.78
2019-05-13T08:27:35.069Z,1055.92
2019-05-13T08:28:32.748Z,1058.08
2019-05-13T08:29:33.122Z,1057.02
2019-05-13T08:30:32.769Z,1054.80
2019-05-13T08:31:32.781Z,1057.45
2019-05-13T08:32:32.798Z,1060.00
2019-05-13T08:33:32.813Z,1059.30
2019-05-13T08:34:33.261Z,1058.99
2019-05-13T08:35:32.866Z,1059.72
2019-05-13T08:36:32.874Z,1060.57
2019-05-13T08:37:32.886Z,1058.68
2019-05-13T08:38:32.892Z,1057.91
2019-05-13T08:39:37.942Z,1058.78
2019-05-13T08:40:32.965Z,1059.37
2019-05-13T08:41:32.941Z,1060.01
2019-05-13T08:42:32.951Z,1061.22
2019-05-13T08:43:32.966Z,1063.66
2019-05-13T08:44:32.994Z,1062.33
2019-05-13T08:45:33.007Z,1060.81
2019-05-13T08:46:33.032Z,1059.56
2019-05-13T08:47:33.063Z,1058.64
2019-05-13T08:48:33.092Z,1059.17
2019-05-13T08:49:33.075Z,1059.86
2019-05-13T08:50:33.088Z,1061.08
2019-05-13T08:51:34.796Z,1061.56
2019-05-13T08:52:33.126Z,1059.76
2019-05-13T08:53:33.149Z,1060.68
2019-05-13T08:54:33.262Z,1061.32
2019-05-13T08:55:33.184Z,1062.01
2019-05-13T08:56:33.197Z,1062.92
2019-05-13T08:57:33.209Z,1064.47
2019-05-13T08:58:33.239Z,1062.95
2019-05-13T08:59:33.241Z,1059.73
2019-05-13T09:00:33.256Z,1061.21
2019-05-13T09:01:33.283Z,1064.76
2019-05-13T09:02:33.287Z,1064.26
2019-05-13T09:03:33.309Z,1061.20
2019-05-13T09:04:33.318Z,1062.39
2019-05-13T09:05:33.345Z,1061.18
2019-05-13T09:06:33.354Z,1058.82
2019-05-13T09:07:33.380Z,1060.36
2019-05-13T09:08:33.397Z,1061.65
2019-05-13T09:09:33.418Z,1061.57
2019-05-13T09:10:33.427Z,1057.40
2019-05-13T09:11:33.439Z,1058.50
2019-05-13T09:12:37.051Z,1060.71
2019-05-13T09:13:33.483Z,1059.33
2019-05-13T09:14:33.501Z,1059.55
2019-05-13T09:15:33.506Z,1062.33
2019-05-13T09:16:33.523Z,1063.87
2019-05-13T09:17:33.546Z,1061.65
2019-05-13T09:18:33.572Z,1060.54
2019-05-13T09:19:33.646Z,1059.86
2019-05-13T09:20:33.598Z,1058.26
2019-05-13T09:21:33.615Z,1055.27
2019-05-13T09:22:33.637Z,1053.95
2019-05-13T09:23:33.658Z,1056.10
2019-05-13T09:24:37.564Z,1054.82
2019-05-13T09:25:33.678Z,1051.68
2019-05-13T09:26:33.697Z,1053.28
2019-05-13T09:27:33.717Z,1053.31
2019-05-13T09:28:33.737Z,1053.57
2019-05-13T09:29:33.752Z,1054.09
2019-05-13T09:30:33.767Z,1053.98
2019-05-13T09:31:33.789Z,1053.27
2019-05-13T09:32:33.798Z,1052.01
2019-05-13T09:33:33.818Z,1052.28
2019-05-13T09:34:33.844Z,1052.01
2019-05-13T09:35:33.850Z,1050.19
2019-05-13T09:36:33.872Z,1050.15
2019-05-13T09:37:33.890Z,1050.96
2019-05-13T09:38:33.909Z,1051.69
2019-05-13T09:39:33.914Z,1051.05
2019-05-13T09:40:33.953Z,1049.76
2019-05-13T09:41:40.588Z,1049.99
2019-05-13T09:42:48.151Z,1049.95
2019-05-13T09:43:33.994Z,1048.79
2019-05-13T09:44:34.007Z,1047.54
2019-05-13T09:45:34.035Z,1047.59
2019-05-13T09:46:34.043Z,1047.29
2019-05-13T09:47:34.058Z,1046.06
2019-05-13T09:48:34.083Z,1045.71
2019-05-13T09:49:34.098Z,1045.56
2019-05-13T09:50:36.178Z,1045.55
2019-05-13T09:51:34.124Z,1045.17
2019-05-13T09:52:34.148Z,1044.78
2019-05-13T09:53:34.164Z,1044.81
2019-05-13T09:54:34.203Z,1044.98
2019-05-13T09:55:34.201Z,1045.07
2019-05-13T09:56:34.225Z,1044.86
2019-05-13T09:57:34.235Z,1044.35
2019-05-13T09:58:34.246Z,1043.76
2019-05-13T09:59:34.261Z,1043.34
2019-05-13T10:00:34.295Z,1043.22
2019-05-13T10:01:34.411Z,1043.09
2019-05-13T10:02:34.322Z,1043.00
2019-05-13T10:03:34.332Z,1042.92
2019-05-13T10:04:34.350Z,1042.79
2019-05-13T10:05:34.369Z,1042.57
2019-05-13T10:06:34.389Z,1042.79
2019-05-13T10:07:34.408Z,1042.98
2019-05-13T10:08:34.436Z,1042.28
2019-05-13T10:09:34.448Z,1042.13
2019-05-13T10:10:34.469Z,1042.22
2019-05-13T10:11:34.476Z,1042.39
2019-05-13T10:12:34.498Z,1042.14
2019-05-13T10:13:34.502Z,1041.55
2019-05-13T10:14:34.573Z,1041.17
2019-05-13T10:15:34.555Z,1041.17
2019-05-13T10:16:34.562Z,1041.15
2019-05-13T10:17:34.584Z,1041.08
2019-05-13T10:18:34.600Z,1040.83
2019-05-13T10:19:34.625Z,1040.75
2019-05-13T10:20:34.644Z,1040.64
2019-05-13T10:21:34.657Z,1040.73
2019-05-13T10:22:34.664Z,1040.41
2019-05-13T10:23:34.685Z,1040.66
2019-05-13T10:24:34.711Z,1040.05
2019-05-13T10:25:34.733Z,1039.55
2019-05-13T10:26:34.744Z,1039.64
2019-05-13T10:27:34.766Z,1039.69
2019-05-13T10:28:34.910Z,1039.48
2019-05-13T10:29:34.792Z,1039.61
2019-05-13T10:30:34.824Z,1039.69
2019-05-13T10:31:34.827Z,1039.71
2019-05-13T10:32:34.840Z,1039.53
2019-05-13T10:33:34.853Z,1039.29
2019-05-13T10:34:34.885Z,1039.19
2019-05-13T10:35:34.904Z,1039.10
2019-05-13T10:36:35.025Z,1038.78
2019-05-13T10:37:34.926Z,1038.41
2019-05-13T10:38:34.959Z,1038.19
2019-05-13T10:39:34.966Z,1038.07
2019-05-13T10:40:34.987Z,1037.90
2019-05-13T10:41:35.035Z,1037.64
2019-05-13T10:42:35.027Z,1037.30
2019-05-13T10:44:35.068Z,1037.42
2019-05-13T10:45:35.084Z,1037.18
2019-05-13T10:46:35.169Z,1037.03
2019-05-13T10:47:35.108Z,1037.34
2019-05-13T10:48:35.136Z,1037.08
2019-05-13T10:49:35.167Z,1036.66
2019-05-13T10:50:35.166Z,1036.66
2019-05-13T10:51:35.191Z,1036.55
2019-05-13T10:52:35.209Z,1036.24
2019-05-13T10:53:35.228Z,1035.96
2019-05-13T10:54:35.240Z,1035.67
2019-05-13T10:55:35.253Z,1035.42
2019-05-13T10:56:35.275Z,1035.28
2019-05-13T10:57:35.287Z,1035.13
2019-05-13T10:58:35.309Z,1034.99
2019-05-13T10:59:35.319Z,1034.69
2019-05-13T11:00:35.337Z,1034.43
2019-05-13T11:01:35.357Z,1034.43
2019-05-13T11:02:35.389Z,1034.30
2019-05-13T11:03:35.417Z,1034.25
2019-05-13T11:04:35.415Z,1034.21
2019-05-13T11:05:40.527Z,1034.09
2019-05-13T11:06:35.453Z,1034.06
2019-05-13T11:07:35.472Z,1033.98
2019-05-13T11:08:35.485Z,1033.94
2019-05-13T11:09:35.509Z,1033.98
2019-05-13T11:10:35.525Z,1033.92
2019-05-13T11:11:35.541Z,1033.87
2019-05-13T11:12:35.561Z,1033.80
2019-05-13T11:13:52.329Z,1033.76
2019-05-13T11:14:35.601Z,1033.71
2019-05-13T11:15:41.153Z,1033.71
2019-05-13T11:16:35.629Z,1033.81
2019-05-13T11:17:35.649Z,1033.80
2019-05-13T11:18:35.677Z,1033.76
2019-05-13T11:19:37.087Z,1033.68
2019-05-13T11:20:35.712Z,1033.67
2019-05-13T11:21:35.721Z,1033.65
2019-05-13T11:22:35.739Z,1033.69
2019-05-13T11:23:35.762Z,1033.67
2019-05-13T11:24:35.771Z,1033.64
2019-05-13T11:25:35.788Z,1033.58
2019-05-13T11:26:36.463Z,1033.57
2019-05-13T11:27:35.834Z,1033.57
2019-05-13T11:28:35.849Z,1033.57
2019-05-13T11:29:35.869Z,1033.60
2019-05-13T11:30:35.889Z,1033.59
2019-05-13T11:31:35.967Z,1033.56
2019-05-13T11:32:35.910Z,1033.54
2019-05-13T11:33:35.940Z,1033.54
2019-05-13T11:34:35.956Z,1033.52
2019-05-13T11:35:35.965Z,1033.54
2019-05-13T11:36:35.984Z,1033.50
2019-05-13T11:37:35.998Z,1033.56
2019-05-13T11:38:36.023Z,1033.57
2019-05-13T11:39:36.061Z,1033.55
2019-05-13T11:40:36.076Z,1033.56
2019-05-13T11:41:36.093Z,1033.58
2019-05-13T11:42:36.210Z,1033.51
2019-05-13T11:43:36.108Z,1033.48
2019-05-13T11:44:36.132Z,1033.49
2019-05-13T11:45:36.146Z,1033.52
2019-05-13T11:46:36.171Z,1033.52
2019-05-13T11:47:36.190Z,1033.47
2019-05-13T11:48:36.214Z,1033.44
2019-05-13T11:49:36.221Z,1033.36
2019-05-13T11:50:36.244Z,1033.34
2019-05-13T11:51:36.252Z,1033.39
2019-05-13T11:52:36.273Z,1033.44
2019-05-13T11:53:37.662Z,1033.45
2019-05-13T11:54:36.308Z,1033.42
2019-05-13T11:55:36.324Z,1033.40
2019-05-13T11:56:36.345Z,1033.38
2019-05-13T11:57:36.371Z,1033.33
2019-05-13T11:58:36.377Z,1033.32
2019-05-13T11:59:36.400Z,1033.23
2019-05-13T12:00:36.412Z,1033.21
2019-05-13T12:01:36.430Z,1033.15
2019-05-13T12:02:36.449Z,1033.18
2019-05-13T12:03:36.465Z,1033.21
2019-05-13T12:04:36.481Z,1033.21
2019-05-13T12:05:36.497Z,1033.18
2019-05-13T12:06:43.789Z,1033.20
2019-05-13T12:07:36.571Z,1033.20
2019-05-13T12:08:36.566Z,1033.17
2019-05-13T12:09:36.583Z,1033.18
2019-05-13T12:10:36.613Z,1033.12
2019-05-13T12:11:36.610Z,1033.06
2019-05-13T12:12:36.628Z,1033.02
2019-05-13T12:13:36.644Z,1033.04
2019-05-13T12:14:56.529Z,1032.98
2019-05-13T12:15:45.958Z,1032.96
2019-05-13T12:16:36.696Z,1032.93
2019-05-13T12:17:36.719Z,1032.94
2019-05-13T12:18:43.248Z,1032.96
2019-05-13T12:19:36.751Z,1032.93
2019-05-13T12:20:36.796Z,1032.90
2019-05-13T12:21:41.917Z,1032.90
2019-05-13T12:22:36.805Z,1032.88
2019-05-13T12:23:36.827Z,1032.87
2019-05-13T12:24:36.856Z,1032.86
2019-05-13T12:25:36.875Z,1032.81
2019-05-13T12:26:36.882Z,1032.77
2019-05-13T12:27:36.901Z,1032.70
2019-05-13T12:28:36.908Z,1032.69
2019-05-13T12:29:36.946Z,1032.65
2019-05-13T12:30:36.957Z,1032.60
2019-05-13T12:31:36.972Z,1032.62
2019-05-13T12:32:37.005Z,1032.62
2019-05-13T12:33:37.014Z,1032.69
2019-05-13T12:34:40.991Z,1032.64
2019-05-13T12:35:37.057Z,1032.62
2019-05-13T12:36:37.067Z,1032.67
2019-05-13T12:37:37.088Z,1032.64
2019-05-13T12:38:37.105Z,1032.62
2019-05-13T12:39:37.116Z,1032.62
2019-05-13T12:40:37.132Z,1032.62
2019-05-13T12:41:37.153Z,1032.59
2019-05-13T12:42:43.263Z,1032.63
2019-05-13T12:43:37.189Z,1032.64
2019-05-13T12:44:59.745Z,1032.61
2019-05-13T12:45:37.239Z,1032.60
2019-05-13T12:46:37.261Z,1032.54
2019-05-13T12:47:37.255Z,1032.54
2019-05-13T12:48:37.276Z,1032.55
2019-05-13T12:49:37.303Z,1032.51
2019-05-13T12:50:37.336Z,1032.51
2019-05-13T12:51:37.337Z,1032.48
2019-05-13T12:52:37.350Z,1032.51
2019-05-13T12:53:37.374Z,1032.59
2019-05-13T12:54:37.395Z,1032.58
2019-05-13T12:55:37.427Z,1032.58
2019-05-13T12:56:37.428Z,1032.70
2019-05-13T12:57:37.465Z,1032.74
2019-05-13T12:58:37.466Z,1032.77
2019-05-13T12:59:37.487Z,1032.72
2019-05-13T13:00:37.507Z,1032.65
2019-05-13T13:01:37.529Z,1032.61
2019-05-13T13:02:37.550Z,1032.55
2019-05-13T13:03:37.559Z,1032.68
2019-05-13T13:04:37.593Z,1032.62
2019-05-13T13:05:37.606Z,1032.58
2019-05-13T13:06:41.597Z,1032.55
2019-05-13T13:07:41.221Z,1032.48
2019-05-13T13:08:43.358Z,1032.51
2019-05-13T13:09:37.664Z,1032.50
2019-05-13T13:10:37.689Z,1032.49
2019-05-13T13:11:37.709Z,1032.48
2019-05-13T13:12:37.773Z,1032.46
2019-05-13T13:13:58.974Z,1032.45
2019-05-13T13:14:39.630Z,1032.42
2019-05-13T13:15:42.382Z,1032.39
2019-05-13T13:16:37.828Z,1032.38
2019-05-13T13:17:37.827Z,1032.37
2019-05-13T13:18:37.838Z,1032.25
2019-05-13T13:19:37.854Z,1032.30
2019-05-13T13:20:42.111Z,1032.37
2019-05-13T13:21:37.990Z,1032.34
2019-05-13T13:22:37.913Z,1032.32
2019-05-13T13:23:37.932Z,1032.33
2019-05-13T13:24:37.954Z,1032.36
2019-05-13T13:25:38.044Z,1032.37
2019-05-13T13:26:37.986Z,1032.33
2019-05-13T13:28:03.146Z,1032.26
2019-05-13T13:28:38.061Z,1032.21
2019-05-13T13:29:38.045Z,1032.26
2019-05-13T13:30:38.059Z,1032.25
2019-05-13T13:31:38.082Z,1032.17
2019-05-13T13:32:38.126Z,1032.17
2019-05-13T13:33:38.109Z,1032.13
2019-05-13T13:34:38.135Z,1032.11
2019-05-13T13:35:38.162Z,1032.10
2019-05-13T13:36:38.168Z,1032.12
2019-05-13T13:37:38.257Z,1032.08
2019-05-13T13:38:38.208Z,1032.05
2019-05-13T13:39:38.224Z,1031.99
2019-05-13T13:40:38.246Z,1032.02
2019-05-13T13:41:38.263Z,1032.10
2019-05-13T13:42:38.270Z,1032.07
2019-05-13T13:43:38.333Z,1032.00
2019-05-13T13:44:38.319Z,1032.01
2019-05-13T13:46:06.098Z,1032.02
2019-05-13T13:46:44.649Z,1032.03
2019-05-13T13:47:38.390Z,1032.00
2019-05-13T13:48:38.390Z,1031.97
2019-05-13T13:49:38.411Z,1031.95
2019-05-13T13:50:38.440Z,1031.98
2019-05-13T13:51:38.458Z,1031.92
2019-05-13T13:52:38.464Z,1031.88
2019-05-13T13:53:38.599Z,1031.87
2019-05-13T13:54:38.505Z,1031.91
2019-05-13T13:55:38.525Z,1031.87
2019-05-13T13:56:38.557Z,1031.90
2019-05-13T13:57:38.563Z,1031.91
2019-05-13T13:58:38.577Z,1031.92
2019-05-13T14:00:13.738Z,1031.89
2019-05-13T14:00:52.559Z,1031.89
2019-05-13T14:01:38.629Z,1031.91
2019-05-13T14:02:38.658Z,1031.93
2019-05-13T14:03:38.670Z,1031.95
2019-05-13T14:04:38.693Z,1031.95
2019-05-13T14:05:38.699Z,1031.95
2019-05-13T14:07:39.873Z,1031.90
2019-05-13T14:08:41.388Z,1031.82
2019-05-13T14:09:38.784Z,1031.80
2019-05-13T14:10:38.820Z,1031.81
2019-05-13T14:11:38.812Z,1031.83
2019-05-13T14:12:38.847Z,1031.77
2019-05-13T14:13:38.857Z,1031.80
2019-05-13T14:14:41.234Z,1031.78
2019-05-13T14:15:41.538Z,1031.79
2019-05-13T14:16:38.912Z,1031.77
2019-05-13T14:17:38.924Z,1031.66
2019-05-13T14:18:41.709Z,1031.68
2019-05-13T14:19:38.969Z,1031.64
2019-05-13T14:20:38.989Z,1031.67
2019-05-13T14:21:41.466Z,1031.69
2019-05-13T14:22:41.777Z,1031.73
2019-05-13T14:23:39.047Z,1031.70
2019-05-13T14:24:39.064Z,1031.71
2019-05-13T14:25:41.891Z,1031.71
2019-05-13T14:26:39.100Z,1031.68
2019-05-13T14:27:39.122Z,1031.65
2019-05-13T14:28:41.919Z,1031.61
2019-05-13T14:29:45.972Z,1031.63
2019-05-13T14:30:39.180Z,1031.67
2019-05-13T14:31:41.313Z,1031.66
2019-05-13T14:32:39.227Z,1031.63
2019-05-13T14:33:39.248Z,1031.57
2019-05-13T14:34:41.865Z,1031.57
2019-05-13T14:35:41.465Z,1031.56
2019-05-13T14:36:39.288Z,1031.47
2019-05-13T14:37:39.314Z,1031.46
2019-05-13T14:38:39.327Z,1031.51
2019-05-13T14:39:39.465Z,1031.46
2019-05-13T14:40:39.392Z,1031.50
2019-05-13T14:41:39.391Z,1031.51
2019-05-13T14:42:39.412Z,1031.54
2019-05-13T14:43:39.461Z,1031.46
2019-05-13T14:44:39.437Z,1031.53
2019-05-13T14:46:55.448Z,1031.48
2019-05-13T14:47:39.489Z,1031.44
2019-05-13T14:48:39.509Z,1031.45
2019-05-13T14:49:42.109Z,1031.46
2019-05-13T14:50:41.617Z,1031.46
2019-05-13T14:51:41.490Z,1031.41
2019-05-13T14:52:41.636Z,1031.46
2019-05-13T14:53:41.598Z,1031.44
2019-05-13T14:54:41.845Z,1031.45
2019-05-13T14:55:41.900Z,1031.46
2019-05-13T14:56:41.832Z,1031.48
2019-05-13T14:57:41.904Z,1031.45
2019-05-13T14:58:41.853Z,1031.47
2019-05-13T14:59:41.413Z,1031.47
2019-05-13T15:01:41.341Z,1031.40
2019-05-13T15:02:41.929Z,1031.40
2019-05-13T15:03:41.572Z,1031.42
2019-05-13T15:04:41.894Z,1031.46
2019-05-13T15:05:39.821Z,1031.45
2019-05-13T15:06:41.677Z,1031.54
2019-05-13T15:07:42.068Z,1031.54
2019-05-13T15:08:42.202Z,1031.47
2019-05-13T15:09:42.018Z,1031.44
2019-05-13T15:10:41.931Z,1031.38
2019-05-13T15:11:41.905Z,1031.35
2019-05-13T15:12:41.567Z,1031.37
2019-05-13T15:13:42.296Z,1031.37
2019-05-13T15:14:42.441Z,1031.41
2019-05-13T15:15:42.125Z,1031.42
2019-05-13T15:16:42.389Z,1031.37
2019-05-13T15:17:42.473Z,1031.48
2019-05-13T15:18:41.642Z,1031.58
2019-05-13T15:19:41.974Z,1031.62
2019-05-13T15:20:41.710Z,1031.66
2019-05-13T15:21:41.278Z,1031.73
2019-05-13T15:22:42.324Z,1031.74
2019-05-13T15:23:42.208Z,1031.72
2019-05-13T15:24:41.263Z,1031.74
2019-05-13T15:25:42.008Z,1031.78
2019-05-13T15:26:42.227Z,1031.81
2019-05-13T15:27:41.998Z,1031.82
2019-05-13T15:28:42.192Z,1031.88
2019-05-13T15:29:41.784Z,1031.94
2019-05-13T15:30:42.093Z,1032.22
2019-05-13T15:31:42.185Z,1032.60
2019-05-13T15:32:42.013Z,1032.76
2019-05-13T15:33:41.597Z,1031.87
2019-05-13T15:34:42.473Z,1030.98
2019-05-13T15:35:41.936Z,1030.89
2019-05-13T15:36:41.934Z,1030.88
2019-05-13T15:37:41.778Z,1030.82
2019-05-13T15:39:42.547Z,1030.77
2019-05-13T15:40:41.479Z,1030.75
2019-05-13T15:41:41.773Z,1030.71
2019-05-13T15:42:40.575Z,1030.79
2019-05-13T15:43:42.161Z,1030.72
2019-05-13T15:44:40.451Z,1030.70
2019-05-13T15:45:42.510Z,1030.72
2019-05-13T15:46:41.654Z,1030.72
2019-05-13T15:47:40.504Z,1030.74
2019-05-13T15:48:42.215Z,1030.68
2019-05-13T15:49:40.552Z,1030.71
2019-05-13T15:50:42.229Z,1030.71
2019-05-13T15:51:42.242Z,1030.68
2019-05-13T15:52:43.258Z,1030.73
2019-05-13T15:53:40.586Z,1030.65
2019-05-13T15:54:41.432Z,1030.68
2019-05-13T15:55:40.617Z,1030.67
2019-05-13T15:56:40.636Z,1030.59
2019-05-13T15:57:42.777Z,1030.60
2019-05-13T15:58:43.574Z,1030.60
2019-05-13T15:59:41.485Z,1030.62
2019-05-13T16:00:41.938Z,1030.63
2019-05-13T16:01:41.443Z,1030.64
2019-05-13T16:02:42.144Z,1030.62
2019-05-13T16:03:41.554Z,1030.64
2019-05-13T16:04:49.929Z,1030.61
2019-05-13T16:05:42.357Z,1030.59
2019-05-13T16:06:41.785Z,1030.51
2019-05-13T16:07:41.736Z,1030.47
2019-05-13T16:08:43.311Z,1030.48
2019-05-13T16:09:42.056Z,1030.50
2019-05-13T16:10:41.907Z,1030.45
2019-05-13T16:11:41.549Z,1030.46
2019-05-13T16:12:40.824Z,1030.50
2019-05-13T16:13:40.842Z,1030.53
2019-05-13T16:14:41.458Z,1030.56
2019-05-13T16:15:41.647Z,1030.48
2019-05-13T16:16:41.666Z,1030.47
2019-05-13T16:17:44.467Z,1030.42
2019-05-13T16:18:41.973Z,1030.44
2019-05-13T16:19:41.982Z,1030.43
2019-05-13T16:20:44.478Z,1030.44
2019-05-13T16:21:41.614Z,1030.39
2019-05-13T16:22:42.001Z,1030.37
2019-05-13T16:23:42.926Z,1030.39
2019-05-13T16:24:41.631Z,1030.42
2019-05-13T16:25:41.628Z,1030.45
2019-05-13T16:26:42.630Z,1030.42
2019-05-13T16:27:41.660Z,1030.43
2019-05-13T16:28:41.854Z,1030.43
2019-05-13T16:29:42.248Z,1030.38
2019-05-13T16:30:42.035Z,1030.37
2019-05-13T16:31:41.710Z,1030.41
2019-05-13T16:32:42.434Z,1030.40
2019-05-13T16:33:41.762Z,1030.40
2019-05-13T16:34:42.285Z,1030.40
2019-05-13T16:35:42.507Z,1030.45
2019-05-13T16:36:42.812Z,1030.43
2019-05-13T16:37:41.892Z,1030.38
2019-05-13T16:38:41.911Z,1030.42
2019-05-13T16:39:41.597Z,1030.38
2019-05-13T16:40:42.373Z,1030.35
2019-05-13T16:41:42.594Z,1030.30
2019-05-13T16:42:42.195Z,1030.35
2019-05-13T16:43:42.623Z,1030.31
2019-05-13T16:44:43.003Z,1030.36
2019-05-13T16:45:42.342Z,1030.33
2019-05-13T16:46:42.452Z,1030.32
2019-05-13T16:47:56.231Z,1030.36
2019-05-13T16:48:41.725Z,1030.28
2019-05-13T16:49:41.249Z,1030.34
2019-05-13T16:50:41.824Z,1030.32
2019-05-13T16:51:42.727Z,1030.30
2019-05-13T16:52:41.849Z,1030.34
2019-05-13T16:53:42.231Z,1030.34
2019-05-13T16:54:42.433Z,1030.33
2019-05-13T16:55:41.642Z,1030.36
2019-05-13T16:56:41.994Z,1030.35
2019-05-13T16:57:42.355Z,1030.38
2019-05-13T16:58:41.822Z,1030.40
2019-05-13T16:59:41.357Z,1030.35
2019-05-13T17:00:42.470Z,1030.33
2019-05-13T17:01:41.973Z,1030.37
2019-05-13T17:02:42.220Z,1030.33
2019-05-13T17:03:41.693Z,1030.30
2019-05-13T17:04:41.571Z,1030.32
2019-05-13T17:05:42.004Z,1030.32
2019-05-13T17:06:41.728Z,1030.30
2019-05-13T17:07:42.153Z,1030.31
2019-05-13T17:08:42.483Z,1030.35
2019-05-13T17:09:41.675Z,1030.30
2019-05-13T17:10:41.984Z,1030.30
2019-05-13T17:11:41.692Z,1030.29
2019-05-13T17:12:43.027Z,1030.22
2019-05-13T17:14:41.693Z,1030.19
2019-05-13T17:15:41.757Z,1030.19
2019-05-13T17:16:42.230Z,1030.20
2019-05-13T17:17:41.562Z,1030.19
2019-05-13T17:18:41.901Z,1030.13
2019-05-13T17:19:42.209Z,1030.21
2019-05-13T17:20:41.588Z,1030.17
2019-05-13T17:21:41.610Z,1030.21
2019-05-13T17:22:42.379Z,1030.20
2019-05-13T17:23:41.917Z,1030.23
2019-05-13T17:24:42.658Z,1030.18
2019-05-13T17:25:42.326Z,1030.20
2019-05-13T17:26:41.950Z,1030.14
2019-05-13T17:27:41.660Z,1030.21
2019-05-13T17:28:41.887Z,1030.15
2019-05-13T17:29:41.686Z,1030.15
2019-05-13T17:30:41.697Z,1030.16
2019-05-13T17:31:41.915Z,1030.16
2019-05-13T17:32:41.708Z,1030.14
2019-05-13T17:33:41.730Z,1030.17
2019-05-13T17:34:45.490Z,1030.17
2019-05-13T17:35:41.927Z,1030.16
2019-05-13T17:36:42.084Z,1030.14
2019-05-13T17:37:42.287Z,1030.14
2019-05-13T17:38:41.775Z,1030.11
2019-05-13T17:39:41.779Z,1030.13
2019-05-13T17:40:42.139Z,1030.14
2019-05-13T17:41:41.802Z,1030.18
2019-05-13T17:42:41.810Z,1030.19
2019-05-13T17:43:41.829Z,1030.17
2019-05-13T17:44:45.914Z,1030.18
2019-05-13T17:45:41.873Z,1030.11
2019-05-13T17:46:42.108Z,1030.14
2019-05-13T17:47:42.046Z,1030.14
2019-05-13T17:48:41.880Z,1030.14
2019-05-13T17:49:41.984Z,1030.17
2019-05-13T17:50:41.907Z,1030.18
2019-05-13T17:51:42.529Z,1030.20
2019-05-13T17:52:41.913Z,1030.17
2019-05-13T17:53:41.925Z,1030.22
2019-05-13T17:54:42.768Z,1030.20
2019-05-13T17:55:41.948Z,1030.18
2019-05-13T17:56:41.962Z,1030.16
2019-05-13T17:57:41.978Z,1030.14
2019-05-13T17:58:42.143Z,1030.18
2019-05-13T17:59:42.007Z,1030.14
2019-05-13T18:00:41.996Z,1030.17
2019-05-13T18:01:42.012Z,1030.12
2019-05-13T18:02:42.172Z,1030.12
2019-05-13T18:03:42.032Z,1030.10
2019-05-13T18:04:42.062Z,1030.16
2019-05-13T18:05:42.204Z,1030.19
2019-05-13T18:06:42.068Z,1030.14
2019-05-13T18:07:42.186Z,1030.12
2019-05-13T18:08:42.072Z,1030.14
2019-05-13T18:09:42.466Z,1030.12
2019-05-13T18:10:42.103Z,1030.16
2019-05-13T18:11:42.108Z,1030.14
2019-05-13T18:12:42.139Z,1030.17
2019-05-13T18:13:43.756Z,1030.12
2019-05-13T18:14:42.138Z,1030.15
2019-05-13T18:15:42.150Z,1030.12
2019-05-13T18:16:42.235Z,1030.08
2019-05-13T18:17:42.174Z,1030.11
2019-05-13T18:18:47.082Z,1030.10
2019-05-13T18:19:42.339Z,1030.09
2019-05-13T18:20:42.196Z,1030.11
2019-05-13T18:21:42.587Z,1030.10
2019-05-13T18:22:42.247Z,1030.08
2019-05-13T18:23:42.227Z,1030.12
2019-05-13T18:24:42.237Z,1030.10
2019-05-13T18:25:42.339Z,1030.09
2019-05-13T18:26:42.264Z,1030.11
2019-05-13T18:27:42.272Z,1030.15
2019-05-13T18:28:42.295Z,1030.16
2019-05-13T18:29:42.289Z,1030.14
2019-05-13T18:30:42.296Z,1030.16
2019-05-13T18:31:42.406Z,1030.18
2019-05-13T18:32:42.312Z,1030.17
2019-05-13T18:33:42.501Z,1030.18
2019-05-13T18:34:42.322Z,1030.16
2019-05-13T18:35:42.342Z,1030.19
2019-05-13T18:36:42.768Z,1030.20
2019-05-13T18:37:42.365Z,1030.20